sensor_id;sensor_type;location;lat;lon;timestamp;P1;durP1;ratioP1;P2;durP2;ratioP2
59169;SDS011;52474;52.236;5.114;2023-11-22T00:00:29;33.10;;;14.18;;
59169;SDS011;52474;52.236;5.114;2023-11-22T00:02:55;39.83;;;15.32;;
59169;SDS011;52474;52.236;5.114;2023-11-22T00:05:20;30.65;;;13.65;;
59169;SDS011;52474;52.236;5.114;2023-11-22T00:07:46;33.85;;;14.40;;
59169;SDS011;52474;52.236;5.114;2023-11-22T00:10:12;32.20;;;14.15;;
59169;SDS011;52474;52.236;5.114;2023-11-22T00:12:39;33.13;;;13.50;;
59169;SDS011;52474;52.236;5.114;2023-11-22T00:15:05;28.88;;;13.32;;
59169;SDS011;52474;52.236;5.114;2023-11-22T00:17:32;30.25;;;12.95;;
59169;SDS011;52474;52.236;5.114;2023-11-22T00:19:58;31.52;;;14.73;;
59169;SDS011;52474;52.236;5.114;2023-11-22T00:22:26;37.28;;;14.60;;
59169;SDS011;52474;52.236;5.114;2023-11-22T00:24:52;31.13;;;13.40;;
59169;SDS011;52474;52.236;5.114;2023-11-22T00:27:18;33.47;;;12.98;;
59169;SDS011;52474;52.236;5.114;2023-11-22T00:29:44;24.98;;;12.43;;
59169;SDS011;52474;52.236;5.114;2023-11-22T00:32:11;36.97;;;12.88;;
59169;SDS011;52474;52.236;5.114;2023-11-22T00:34:37;30.38;;;12.48;;
59169;SDS011;52474;52.236;5.114;2023-11-22T00:37:03;35.85;;;14.13;;
59169;SDS011;52474;52.236;5.114;2023-11-22T00:39:28;35.83;;;13.55;;
59169;SDS011;52474;52.236;5.114;2023-11-22T00:41:54;35.17;;;13.57;;
59169;SDS011;52474;52.236;5.114;2023-11-22T00:44:21;28.75;;;13.55;;
59169;SDS011;52474;52.236;5.114;2023-11-22T00:46:48;33.20;;;13.25;;
59169;SDS011;52474;52.236;5.114;2023-11-22T00:49:14;36.22;;;14.07;;
59169;SDS011;52474;52.236;5.114;2023-11-22T00:51:40;29.27;;;12.18;;
59169;SDS011;52474;52.236;5.114;2023-11-22T00:54:06;31.60;;;14.13;;
59169;SDS011;52474;52.236;5.114;2023-11-22T00:56:31;27.63;;;12.90;;
59169;SDS011;52474;52.236;5.114;2023-11-22T00:58:57;43.65;;;14.18;;
59169;SDS011;52474;52.236;5.114;2023-11-22T01:01:25;30.15;;;12.93;;
59169;SDS011;52474;52.236;5.114;2023-11-22T01:03:51;28.98;;;13.00;;
59169;SDS011;52474;52.236;5.114;2023-11-22T01:06:17;27.08;;;12.50;;
59169;SDS011;52474;52.236;5.114;2023-11-22T01:08:46;29.98;;;12.98;;
59169;SDS011;52474;52.236;5.114;2023-11-22T01:11:13;33.13;;;13.45;;
59169;SDS011;52474;52.236;5.114;2023-11-22T01:13:38;28.98;;;12.25;;
59169;SDS011;52474;52.236;5.114;2023-11-22T01:16:09;29.60;;;12.85;;
59169;SDS011;52474;52.236;5.114;2023-11-22T01:18:35;34.35;;;13.90;;
59169;SDS011;52474;52.236;5.114;2023-11-22T01:21:01;31.05;;;12.98;;
59169;SDS011;52474;52.236;5.114;2023-11-22T01:23:26;27.45;;;12.88;;
59169;SDS011;52474;52.236;5.114;2023-11-22T01:25:53;39.53;;;13.88;;
59169;SDS011;52474;52.236;5.114;2023-11-22T01:28:19;34.85;;;13.38;;
59169;SDS011;52474;52.236;5.114;2023-11-22T01:30:45;28.75;;;12.20;;
59169;SDS011;52474;52.236;5.114;2023-11-22T01:33:14;32.77;;;13.77;;
59169;SDS011;52474;52.236;5.114;2023-11-22T01:35:40;33.95;;;12.82;;
59169;SDS011;52474;52.236;5.114;2023-11-22T01:38:06;38.10;;;13.80;;
59169;SDS011;52474;52.236;5.114;2023-11-22T01:40:33;39.63;;;14.00;;
59169;SDS011;52474;52.236;5.114;2023-11-22T01:42:59;25.98;;;11.07;;
59169;SDS011;52474;52.236;5.114;2023-11-22T01:45:27;36.63;;;12.57;;
59169;SDS011;52474;52.236;5.114;2023-11-22T01:47:53;32.35;;;12.38;;
59169;SDS011;52474;52.236;5.114;2023-11-22T01:50:19;26.25;;;11.27;;
59169;SDS011;52474;52.236;5.114;2023-11-22T01:52:45;29.02;;;12.20;;
59169;SDS011;52474;52.236;5.114;2023-11-22T01:55:12;25.15;;;10.52;;
59169;SDS011;52474;52.236;5.114;2023-11-22T01:57:39;35.28;;;12.25;;
59169;SDS011;52474;52.236;5.114;2023-11-22T02:00:05;26.55;;;11.68;;
59169;SDS011;52474;52.236;5.114;2023-11-22T02:02:40;47.08;;;13.65;;
59169;SDS011;52474;52.236;5.114;2023-11-22T02:05:08;30.52;;;11.93;;
59169;SDS011;52474;52.236;5.114;2023-11-22T02:07:33;34.47;;;12.75;;
59169;SDS011;52474;52.236;5.114;2023-11-22T02:09:59;29.27;;;11.98;;
59169;SDS011;52474;52.236;5.114;2023-11-22T02:12:25;31.35;;;12.23;;
59169;SDS011;52474;52.236;5.114;2023-11-22T02:14:51;36.40;;;12.75;;
59169;SDS011;52474;52.236;5.114;2023-11-22T02:17:16;37.97;;;12.60;;
59169;SDS011;52474;52.236;5.114;2023-11-22T02:19:43;30.63;;;12.32;;
59169;SDS011;52474;52.236;5.114;2023-11-22T02:22:12;33.95;;;13.38;;
59169;SDS011;52474;52.236;5.114;2023-11-22T02:24:37;43.15;;;12.93;;
59169;SDS011;52474;52.236;5.114;2023-11-22T02:27:03;27.08;;;11.85;;
59169;SDS011;52474;52.236;5.114;2023-11-22T02:29:29;32.10;;;11.95;;
59169;SDS011;52474;52.236;5.114;2023-11-22T02:31:55;30.55;;;12.35;;
59169;SDS011;52474;52.236;5.114;2023-11-22T02:34:20;30.02;;;10.98;;
59169;SDS011;52474;52.236;5.114;2023-11-22T02:36:46;26.98;;;10.10;;
59169;SDS011;52474;52.236;5.114;2023-11-22T02:39:12;33.38;;;10.65;;
59169;SDS011;52474;52.236;5.114;2023-11-22T02:41:39;28.77;;;10.48;;
59169;SDS011;52474;52.236;5.114;2023-11-22T02:44:05;36.00;;;11.63;;
59169;SDS011;52474;52.236;5.114;2023-11-22T02:46:33;28.58;;;10.10;;
59169;SDS011;52474;52.236;5.114;2023-11-22T02:48:59;33.88;;;10.90;;
59169;SDS011;52474;52.236;5.114;2023-11-22T02:51:25;32.70;;;11.45;;
59169;SDS011;52474;52.236;5.114;2023-11-22T02:53:51;36.17;;;12.30;;
59169;SDS011;52474;52.236;5.114;2023-11-22T02:56:18;53.53;;;15.02;;
59169;SDS011;52474;52.236;5.114;2023-11-22T02:58:44;63.65;;;14.77;;
59169;SDS011;52474;52.236;5.114;2023-11-22T03:01:11;41.95;;;13.60;;
59169;SDS011;52474;52.236;5.114;2023-11-22T03:03:37;43.08;;;13.68;;
59169;SDS011;52474;52.236;5.114;2023-11-22T03:06:03;46.10;;;13.68;;
59169;SDS011;52474;52.236;5.114;2023-11-22T03:08:30;42.22;;;12.73;;
59169;SDS011;52474;52.236;5.114;2023-11-22T03:10:55;57.40;;;13.57;;
59169;SDS011;52474;52.236;5.114;2023-11-22T03:13:21;38.75;;;12.98;;
59169;SDS011;52474;52.236;5.114;2023-11-22T03:15:48;32.95;;;12.18;;
59169;SDS011;52474;52.236;5.114;2023-11-22T03:18:13;29.75;;;11.57;;
59169;SDS011;52474;52.236;5.114;2023-11-22T03:20:40;32.17;;;12.25;;
59169;SDS011;52474;52.236;5.114;2023-11-22T03:23:07;30.80;;;11.77;;
59169;SDS011;52474;52.236;5.114;2023-11-22T03:25:36;36.30;;;13.02;;
59169;SDS011;52474;52.236;5.114;2023-11-22T03:28:02;56.92;;;14.75;;
59169;SDS011;52474;52.236;5.114;2023-11-22T03:30:28;45.60;;;13.43;;
59169;SDS011;52474;52.236;5.114;2023-11-22T03:32:53;37.10;;;13.18;;
59169;SDS011;52474;52.236;5.114;2023-11-22T03:35:20;41.00;;;13.50;;
59169;SDS011;52474;52.236;5.114;2023-11-22T03:37:47;54.22;;;14.93;;
59169;SDS011;52474;52.236;5.114;2023-11-22T03:40:12;43.30;;;13.48;;
59169;SDS011;52474;52.236;5.114;2023-11-22T03:42:39;40.15;;;14.23;;
59169;SDS011;52474;52.236;5.114;2023-11-22T03:45:05;44.97;;;14.32;;
59169;SDS011;52474;52.236;5.114;2023-11-22T03:47:32;55.22;;;16.20;;
59169;SDS011;52474;52.236;5.114;2023-11-22T03:50:03;44.92;;;14.75;;
59169;SDS011;52474;52.236;5.114;2023-11-22T03:52:31;65.63;;;16.90;;
59169;SDS011;52474;52.236;5.114;2023-11-22T03:54:56;55.90;;;16.05;;
59169;SDS011;52474;52.236;5.114;2023-11-22T03:57:23;38.65;;;14.73;;
59169;SDS011;52474;52.236;5.114;2023-11-22T03:59:49;41.58;;;14.93;;
59169;SDS011;52474;52.236;5.114;2023-11-22T04:02:14;44.42;;;14.15;;
59169;SDS011;52474;52.236;5.114;2023-11-22T04:04:40;42.25;;;13.27;;
59169;SDS011;52474;52.236;5.114;2023-11-22T04:07:06;37.85;;;12.55;;
59169;SDS011;52474;52.236;5.114;2023-11-22T04:09:33;37.22;;;11.98;;
59169;SDS011;52474;52.236;5.114;2023-11-22T04:11:58;34.25;;;11.55;;
59169;SDS011;52474;52.236;5.114;2023-11-22T04:14:24;29.73;;;10.98;;
59169;SDS011;52474;52.236;5.114;2023-11-22T04:16:52;36.83;;;12.15;;
59169;SDS011;52474;52.236;5.114;2023-11-22T04:19:18;45.55;;;12.93;;
59169;SDS011;52474;52.236;5.114;2023-11-22T04:21:44;40.40;;;13.70;;
59169;SDS011;52474;52.236;5.114;2023-11-22T04:24:09;46.70;;;15.70;;
59169;SDS011;52474;52.236;5.114;2023-11-22T04:26:37;53.60;;;16.25;;
59169;SDS011;52474;52.236;5.114;2023-11-22T04:29:03;63.17;;;17.58;;
59169;SDS011;52474;52.236;5.114;2023-11-22T04:31:30;66.07;;;17.15;;
59169;SDS011;52474;52.236;5.114;2023-11-22T04:33:56;40.63;;;14.63;;
59169;SDS011;52474;52.236;5.114;2023-11-22T04:36:23;69.13;;;17.38;;
59169;SDS011;52474;52.236;5.114;2023-11-22T04:38:49;56.50;;;15.95;;
59169;SDS011;52474;52.236;5.114;2023-11-22T04:41:15;46.25;;;14.35;;
59169;SDS011;52474;52.236;5.114;2023-11-22T04:43:42;31.67;;;11.88;;
59169;SDS011;52474;52.236;5.114;2023-11-22T04:46:10;38.58;;;11.88;;
59169;SDS011;52474;52.236;5.114;2023-11-22T04:48:35;24.17;;;9.60;;
59169;SDS011;52474;52.236;5.114;2023-11-22T04:51:03;23.33;;;9.40;;
59169;SDS011;52474;52.236;5.114;2023-11-22T04:53:29;33.65;;;10.93;;
59169;SDS011;52474;52.236;5.114;2023-11-22T04:55:54;39.67;;;12.95;;
59169;SDS011;52474;52.236;5.114;2023-11-22T04:58:20;35.10;;;13.00;;
59169;SDS011;52474;52.236;5.114;2023-11-22T05:00:46;42.83;;;14.13;;
59169;SDS011;52474;52.236;5.114;2023-11-22T05:03:12;40.40;;;14.75;;
59169;SDS011;52474;52.236;5.114;2023-11-22T05:05:38;46.40;;;14.73;;
59169;SDS011;52474;52.236;5.114;2023-11-22T05:08:03;43.97;;;16.08;;
59169;SDS011;52474;52.236;5.114;2023-11-22T05:10:29;40.70;;;14.98;;
59169;SDS011;52474;52.236;5.114;2023-11-22T05:12:55;38.08;;;14.75;;
59169;SDS011;52474;52.236;5.114;2023-11-22T05:15:25;40.63;;;14.40;;
59169;SDS011;52474;52.236;5.114;2023-11-22T05:17:52;49.47;;;15.35;;
59169;SDS011;52474;52.236;5.114;2023-11-22T05:20:17;49.20;;;16.30;;
59169;SDS011;52474;52.236;5.114;2023-11-22T05:22:43;42.40;;;16.27;;
59169;SDS011;52474;52.236;5.114;2023-11-22T05:25:08;43.88;;;16.33;;
59169;SDS011;52474;52.236;5.114;2023-11-22T05:27:34;41.97;;;16.30;;
59169;SDS011;52474;52.236;5.114;2023-11-22T05:30:00;40.60;;;14.77;;
59169;SDS011;52474;52.236;5.114;2023-11-22T05:32:26;45.75;;;14.93;;
59169;SDS011;52474;52.236;5.114;2023-11-22T05:34:52;41.65;;;14.73;;
59169;SDS011;52474;52.236;5.114;2023-11-22T05:37:18;41.55;;;14.85;;
59169;SDS011;52474;52.236;5.114;2023-11-22T05:39:44;41.25;;;14.85;;
59169;SDS011;52474;52.236;5.114;2023-11-22T05:42:10;34.45;;;14.30;;
59169;SDS011;52474;52.236;5.114;2023-11-22T05:44:36;46.40;;;17.23;;
59169;SDS011;52474;52.236;5.114;2023-11-22T05:47:02;36.05;;;15.77;;
59169;SDS011;52474;52.236;5.114;2023-11-22T05:49:27;45.75;;;16.88;;
59169;SDS011;52474;52.236;5.114;2023-11-22T05:51:53;40.67;;;16.23;;
59169;SDS011;52474;52.236;5.114;2023-11-22T05:54:19;44.78;;;15.90;;
59169;SDS011;52474;52.236;5.114;2023-11-22T05:56:45;42.55;;;16.23;;
59169;SDS011;52474;52.236;5.114;2023-11-22T05:59:10;43.17;;;16.10;;
59169;SDS011;52474;52.236;5.114;2023-11-22T06:01:36;37.42;;;14.63;;
59169;SDS011;52474;52.236;5.114;2023-11-22T06:04:02;38.60;;;15.27;;
59169;SDS011;52474;52.236;5.114;2023-11-22T06:06:29;42.33;;;15.88;;
59169;SDS011;52474;52.236;5.114;2023-11-22T06:08:56;39.38;;;15.88;;
59169;SDS011;52474;52.236;5.114;2023-11-22T06:11:21;42.10;;;15.68;;
59169;SDS011;52474;52.236;5.114;2023-11-22T06:13:47;36.60;;;14.98;;
59169;SDS011;52474;52.236;5.114;2023-11-22T06:16:13;41.97;;;15.40;;
59169;SDS011;52474;52.236;5.114;2023-11-22T06:18:39;34.05;;;15.10;;
59169;SDS011;52474;52.236;5.114;2023-11-22T06:21:09;43.90;;;16.15;;
59169;SDS011;52474;52.236;5.114;2023-11-22T06:23:35;44.42;;;15.82;;
59169;SDS011;52474;52.236;5.114;2023-11-22T06:26:01;36.33;;;16.13;;
59169;SDS011;52474;52.236;5.114;2023-11-22T06:28:27;41.70;;;16.25;;
59169;SDS011;52474;52.236;5.114;2023-11-22T06:30:54;38.08;;;14.13;;
59169;SDS011;52474;52.236;5.114;2023-11-22T06:33:20;37.95;;;14.88;;
59169;SDS011;52474;52.236;5.114;2023-11-22T06:35:45;40.95;;;15.60;;
59169;SDS011;52474;52.236;5.114;2023-11-22T06:38:11;38.13;;;16.52;;
59169;SDS011;52474;52.236;5.114;2023-11-22T06:40:36;35.72;;;14.48;;
59169;SDS011;52474;52.236;5.114;2023-11-22T06:43:02;36.20;;;15.02;;
59169;SDS011;52474;52.236;5.114;2023-11-22T06:45:30;37.30;;;15.55;;
59169;SDS011;52474;52.236;5.114;2023-11-22T06:47:56;32.38;;;14.75;;
59169;SDS011;52474;52.236;5.114;2023-11-22T06:50:22;37.83;;;16.65;;
59169;SDS011;52474;52.236;5.114;2023-11-22T06:52:48;42.10;;;14.43;;
59169;SDS011;52474;52.236;5.114;2023-11-22T06:55:15;34.20;;;14.80;;
59169;SDS011;52474;52.236;5.114;2023-11-22T06:57:41;36.22;;;14.07;;
59169;SDS011;52474;52.236;5.114;2023-11-22T07:00:07;36.95;;;14.77;;
59169;SDS011;52474;52.236;5.114;2023-11-22T07:02:35;38.10;;;15.45;;
59169;SDS011;52474;52.236;5.114;2023-11-22T07:05:01;36.42;;;14.82;;
59169;SDS011;52474;52.236;5.114;2023-11-22T07:07:36;36.03;;;14.70;;
59169;SDS011;52474;52.236;5.114;2023-11-22T07:10:03;37.35;;;15.57;;
59169;SDS011;52474;52.236;5.114;2023-11-22T07:12:31;35.45;;;14.57;;
59169;SDS011;52474;52.236;5.114;2023-11-22T07:14:57;45.53;;;18.23;;
59169;SDS011;52474;52.236;5.114;2023-11-22T07:17:24;39.38;;;15.95;;
59169;SDS011;52474;52.236;5.114;2023-11-22T07:19:53;38.05;;;15.90;;
59169;SDS011;52474;52.236;5.114;2023-11-22T07:22:19;41.95;;;15.50;;
59169;SDS011;52474;52.236;5.114;2023-11-22T07:24:47;53.63;;;18.60;;
59169;SDS011;52474;52.236;5.114;2023-11-22T07:27:16;41.00;;;15.88;;
59169;SDS011;52474;52.236;5.114;2023-11-22T07:29:43;44.42;;;16.08;;
59169;SDS011;52474;52.236;5.114;2023-11-22T07:32:10;34.38;;;15.75;;
59169;SDS011;52474;52.236;5.114;2023-11-22T07:34:37;37.53;;;14.85;;
59169;SDS011;52474;52.236;5.114;2023-11-22T07:37:07;39.90;;;16.58;;
59169;SDS011;52474;52.236;5.114;2023-11-22T07:39:33;37.80;;;15.00;;
59169;SDS011;52474;52.236;5.114;2023-11-22T07:42:01;39.97;;;15.18;;
59169;SDS011;52474;52.236;5.114;2023-11-22T07:44:28;35.92;;;14.57;;
59169;SDS011;52474;52.236;5.114;2023-11-22T07:46:54;37.30;;;14.95;;
59169;SDS011;52474;52.236;5.114;2023-11-22T07:49:19;42.30;;;16.15;;
59169;SDS011;52474;52.236;5.114;2023-11-22T07:51:46;35.92;;;15.10;;
59169;SDS011;52474;52.236;5.114;2023-11-22T07:54:12;38.75;;;15.38;;
59169;SDS011;52474;52.236;5.114;2023-11-22T07:56:41;35.00;;;14.30;;
59169;SDS011;52474;52.236;5.114;2023-11-22T07:59:12;40.88;;;15.95;;
59169;SDS011;52474;52.236;5.114;2023-11-22T08:01:38;37.00;;;14.75;;
59169;SDS011;52474;52.236;5.114;2023-11-22T08:04:04;37.50;;;15.15;;
59169;SDS011;52474;52.236;5.114;2023-11-22T08:06:33;38.88;;;14.82;;
59169;SDS011;52474;52.236;5.114;2023-11-22T08:09:00;33.80;;;14.25;;
59169;SDS011;52474;52.236;5.114;2023-11-22T08:11:29;39.30;;;15.20;;
59169;SDS011;52474;52.236;5.114;2023-11-22T08:16:25;39.88;;;15.30;;
59169;SDS011;52474;52.236;5.114;2023-11-22T08:18:51;35.90;;;15.77;;
59169;SDS011;52474;52.236;5.114;2023-11-22T08:21:17;39.83;;;15.20;;
59169;SDS011;52474;52.236;5.114;2023-11-22T08:23:43;35.28;;;14.60;;
59169;SDS011;52474;52.236;5.114;2023-11-22T08:26:12;42.80;;;15.45;;
59169;SDS011;52474;52.236;5.114;2023-11-22T08:28:38;37.35;;;15.23;;
59169;SDS011;52474;52.236;5.114;2023-11-22T08:31:04;47.05;;;17.15;;
59169;SDS011;52474;52.236;5.114;2023-11-22T08:33:34;38.45;;;15.52;;
59169;SDS011;52474;52.236;5.114;2023-11-22T08:36:01;41.65;;;15.88;;
59169;SDS011;52474;52.236;5.114;2023-11-22T08:38:27;43.75;;;15.88;;
59169;SDS011;52474;52.236;5.114;2023-11-22T08:40:53;44.78;;;16.25;;
59169;SDS011;52474;52.236;5.114;2023-11-22T08:43:20;43.60;;;16.83;;
59169;SDS011;52474;52.236;5.114;2023-11-22T08:45:48;45.35;;;18.48;;
59169;SDS011;52474;52.236;5.114;2023-11-22T08:48:14;42.05;;;16.60;;
59169;SDS011;52474;52.236;5.114;2023-11-22T08:50:43;41.92;;;16.65;;
59169;SDS011;52474;52.236;5.114;2023-11-22T08:53:10;42.05;;;17.65;;
59169;SDS011;52474;52.236;5.114;2023-11-22T08:55:35;43.63;;;19.65;;
59169;SDS011;52474;52.236;5.114;2023-11-22T08:58:01;44.42;;;17.50;;
59169;SDS011;52474;52.236;5.114;2023-11-22T09:00:27;46.28;;;17.73;;
59169;SDS011;52474;52.236;5.114;2023-11-22T09:02:54;40.60;;;16.90;;
59169;SDS011;52474;52.236;5.114;2023-11-22T09:05:22;43.40;;;18.00;;
59169;SDS011;52474;52.236;5.114;2023-11-22T09:07:48;41.25;;;18.13;;
59169;SDS011;52474;52.236;5.114;2023-11-22T09:10:16;47.25;;;18.63;;
59169;SDS011;52474;52.236;5.114;2023-11-22T09:12:44;40.35;;;17.58;;
59169;SDS011;52474;52.236;5.114;2023-11-22T09:15:11;40.30;;;18.05;;
59169;SDS011;52474;52.236;5.114;2023-11-22T09:17:43;40.92;;;17.77;;
59169;SDS011;52474;52.236;5.114;2023-11-22T09:20:09;43.40;;;17.52;;
59169;SDS011;52474;52.236;5.114;2023-11-22T09:22:44;45.08;;;17.80;;
59169;SDS011;52474;52.236;5.114;2023-11-22T09:27:45;43.00;;;17.88;;
59169;SDS011;52474;52.236;5.114;2023-11-22T09:30:12;42.30;;;18.30;;
59169;SDS011;52474;52.236;5.114;2023-11-22T09:32:44;38.83;;;17.80;;
59169;SDS011;52474;52.236;5.114;2023-11-22T09:35:11;42.03;;;17.60;;
59169;SDS011;52474;52.236;5.114;2023-11-22T09:37:39;37.13;;;16.52;;
59169;SDS011;52474;52.236;5.114;2023-11-22T09:40:07;43.38;;;17.05;;
59169;SDS011;52474;52.236;5.114;2023-11-22T09:42:34;39.97;;;17.50;;
59169;SDS011;52474;52.236;5.114;2023-11-22T09:45:00;39.35;;;19.02;;
59169;SDS011;52474;52.236;5.114;2023-11-22T09:47:28;37.63;;;16.90;;
59169;SDS011;52474;52.236;5.114;2023-11-22T09:52:26;37.10;;;15.77;;
59169;SDS011;52474;52.236;5.114;2023-11-22T09:54:53;39.88;;;17.00;;
59169;SDS011;52474;52.236;5.114;2023-11-22T09:57:20;44.35;;;19.25;;
59169;SDS011;52474;52.236;5.114;2023-11-22T09:59:50;42.40;;;18.20;;
59169;SDS011;52474;52.236;5.114;2023-11-22T10:02:18;42.08;;;17.92;;
59169;SDS011;52474;52.236;5.114;2023-11-22T10:04:46;40.30;;;18.42;;
59169;SDS011;52474;52.236;5.114;2023-11-22T10:07:13;43.45;;;18.73;;
59169;SDS011;52474;52.236;5.114;2023-11-22T10:09:39;41.30;;;18.08;;
59169;SDS011;52474;52.236;5.114;2023-11-22T10:12:06;41.88;;;19.02;;
59169;SDS011;52474;52.236;5.114;2023-11-22T10:14:33;42.85;;;20.15;;
59169;SDS011;52474;52.236;5.114;2023-11-22T10:17:00;43.55;;;20.45;;
59169;SDS011;52474;52.236;5.114;2023-11-22T10:19:26;45.17;;;20.23;;
59169;SDS011;52474;52.236;5.114;2023-11-22T10:22:03;40.85;;;19.05;;
59169;SDS011;52474;52.236;5.114;2023-11-22T10:24:33;44.80;;;18.45;;
59169;SDS011;52474;52.236;5.114;2023-11-22T10:27:00;41.85;;;18.30;;
59169;SDS011;52474;52.236;5.114;2023-11-22T10:29:27;41.85;;;20.17;;
59169;SDS011;52474;52.236;5.114;2023-11-22T10:31:53;40.78;;;18.73;;
59169;SDS011;52474;52.236;5.114;2023-11-22T10:34:23;46.30;;;20.30;;
59169;SDS011;52474;52.236;5.114;2023-11-22T10:36:49;38.25;;;18.75;;
59169;SDS011;52474;52.236;5.114;2023-11-22T10:39:19;36.42;;;18.90;;
59169;SDS011;52474;52.236;5.114;2023-11-22T10:41:45;34.88;;;18.75;;
59169;SDS011;52474;52.236;5.114;2023-11-22T10:44:11;36.35;;;19.50;;
59169;SDS011;52474;52.236;5.114;2023-11-22T10:46:39;37.88;;;19.48;;
59169;SDS011;52474;52.236;5.114;2023-11-22T10:49:07;36.95;;;18.75;;
59169;SDS011;52474;52.236;5.114;2023-11-22T10:51:33;37.97;;;18.63;;
59169;SDS011;52474;52.236;5.114;2023-11-22T10:54:00;36.90;;;18.83;;
59169;SDS011;52474;52.236;5.114;2023-11-22T10:56:29;33.47;;;17.50;;
59169;SDS011;52474;52.236;5.114;2023-11-22T10:59:02;32.72;;;17.77;;
59169;SDS011;52474;52.236;5.114;2023-11-22T11:01:34;33.60;;;19.08;;
59169;SDS011;52474;52.236;5.114;2023-11-22T11:04:01;32.47;;;17.90;;
59169;SDS011;52474;52.236;5.114;2023-11-22T11:06:32;31.65;;;17.88;;
59169;SDS011;52474;52.236;5.114;2023-11-22T11:09:00;33.60;;;18.45;;
59169;SDS011;52474;52.236;5.114;2023-11-22T11:11:34;33.35;;;18.17;;
59169;SDS011;52474;52.236;5.114;2023-11-22T11:14:02;34.28;;;17.67;;
59169;SDS011;52474;52.236;5.114;2023-11-22T11:16:30;36.72;;;18.42;;
59169;SDS011;52474;52.236;5.114;2023-11-22T11:18:59;36.58;;;19.05;;
59169;SDS011;52474;52.236;5.114;2023-11-22T11:21:27;35.42;;;17.35;;
59169;SDS011;52474;52.236;5.114;2023-11-22T11:23:52;34.60;;;18.67;;
59169;SDS011;52474;52.236;5.114;2023-11-22T11:26:23;36.97;;;19.20;;
59169;SDS011;52474;52.236;5.114;2023-11-22T11:28:51;34.08;;;18.42;;
59169;SDS011;52474;52.236;5.114;2023-11-22T11:31:20;36.92;;;18.23;;
59169;SDS011;52474;52.236;5.114;2023-11-22T11:36:26;36.53;;;18.75;;
59169;SDS011;52474;52.236;5.114;2023-11-22T11:38:55;37.28;;;18.52;;
59169;SDS011;52474;52.236;5.114;2023-11-22T11:43:53;38.72;;;18.42;;
59169;SDS011;52474;52.236;5.114;2023-11-22T11:46:20;36.42;;;18.67;;
59169;SDS011;52474;52.236;5.114;2023-11-22T11:48:49;35.00;;;17.95;;
59169;SDS011;52474;52.236;5.114;2023-11-22T11:51:16;31.67;;;17.83;;
59169;SDS011;52474;52.236;5.114;2023-11-22T11:53:46;31.20;;;18.55;;
59169;SDS011;52474;52.236;5.114;2023-11-22T11:56:12;31.90;;;18.05;;
59169;SDS011;52474;52.236;5.114;2023-11-22T11:58:38;35.05;;;18.35;;
59169;SDS011;52474;52.236;5.114;2023-11-22T12:01:07;29.95;;;17.90;;
59169;SDS011;52474;52.236;5.114;2023-11-22T12:03:33;31.30;;;17.15;;
59169;SDS011;52474;52.236;5.114;2023-11-22T12:06:01;32.03;;;17.65;;
59169;SDS011;52474;52.236;5.114;2023-11-22T12:08:27;31.98;;;16.95;;
59169;SDS011;52474;52.236;5.114;2023-11-22T12:10:56;29.33;;;17.27;;
59169;SDS011;52474;52.236;5.114;2023-11-22T12:13:24;28.70;;;16.90;;
59169;SDS011;52474;52.236;5.114;2023-11-22T12:15:53;24.65;;;15.63;;
59169;SDS011;52474;52.236;5.114;2023-11-22T12:18:19;26.30;;;15.95;;
59169;SDS011;52474;52.236;5.114;2023-11-22T12:20:55;26.85;;;16.10;;
59169;SDS011;52474;52.236;5.114;2023-11-22T12:23:26;24.42;;;15.52;;
59169;SDS011;52474;52.236;5.114;2023-11-22T12:25:56;24.17;;;14.77;;
59169;SDS011;52474;52.236;5.114;2023-11-22T12:30:55;23.13;;;15.55;;
59169;SDS011;52474;52.236;5.114;2023-11-22T12:33:20;26.00;;;14.98;;
59169;SDS011;52474;52.236;5.114;2023-11-22T12:35:46;24.08;;;14.93;;
59169;SDS011;52474;52.236;5.114;2023-11-22T12:38:14;25.55;;;15.13;;
59169;SDS011;52474;52.236;5.114;2023-11-22T12:40:44;27.05;;;15.13;;
59169;SDS011;52474;52.236;5.114;2023-11-22T12:43:12;24.17;;;15.75;;
59169;SDS011;52474;52.236;5.114;2023-11-22T12:45:39;28.88;;;15.63;;
59169;SDS011;52474;52.236;5.114;2023-11-22T12:50:50;28.23;;;16.02;;
59169;SDS011;52474;52.236;5.114;2023-11-22T12:53:16;25.13;;;15.00;;
59169;SDS011;52474;52.236;5.114;2023-11-22T12:55:43;28.42;;;16.13;;
59169;SDS011;52474;52.236;5.114;2023-11-22T12:58:10;28.10;;;15.02;;
59169;SDS011;52474;52.236;5.114;2023-11-22T13:00:37;27.10;;;16.40;;
59169;SDS011;52474;52.236;5.114;2023-11-22T13:03:05;28.70;;;15.10;;
59169;SDS011;52474;52.236;5.114;2023-11-22T13:05:32;29.60;;;17.05;;
59169;SDS011;52474;52.236;5.114;2023-11-22T13:07:57;24.65;;;14.30;;
59169;SDS011;52474;52.236;5.114;2023-11-22T13:10:24;25.83;;;14.52;;
59169;SDS011;52474;52.236;5.114;2023-11-22T13:12:52;24.63;;;14.82;;
59169;SDS011;52474;52.236;5.114;2023-11-22T13:15:19;28.05;;;16.63;;
59169;SDS011;52474;52.236;5.114;2023-11-22T13:17:49;28.27;;;16.63;;
59169;SDS011;52474;52.236;5.114;2023-11-22T13:20:16;24.55;;;15.23;;
59169;SDS011;52474;52.236;5.114;2023-11-22T13:22:42;28.08;;;15.48;;
59169;SDS011;52474;52.236;5.114;2023-11-22T13:25:10;29.20;;;16.35;;
59169;SDS011;52474;52.236;5.114;2023-11-22T13:27:36;29.95;;;16.55;;
59169;SDS011;52474;52.236;5.114;2023-11-22T13:30:02;26.08;;;15.52;;
59169;SDS011;52474;52.236;5.114;2023-11-22T13:32:30;29.20;;;17.08;;
59169;SDS011;52474;52.236;5.114;2023-11-22T13:34:56;30.63;;;17.27;;
59169;SDS011;52474;52.236;5.114;2023-11-22T13:37:23;34.13;;;18.35;;
59169;SDS011;52474;52.236;5.114;2023-11-22T13:39:49;30.25;;;16.88;;
59169;SDS011;52474;52.236;5.114;2023-11-22T13:42:15;34.15;;;18.88;;
59169;SDS011;52474;52.236;5.114;2023-11-22T13:44:40;31.90;;;17.02;;
59169;SDS011;52474;52.236;5.114;2023-11-22T13:47:06;33.72;;;17.73;;
59169;SDS011;52474;52.236;5.114;2023-11-22T13:49:35;38.00;;;17.75;;
59169;SDS011;52474;52.236;5.114;2023-11-22T13:52:02;30.73;;;18.00;;
59169;SDS011;52474;52.236;5.114;2023-11-22T13:54:28;32.67;;;18.23;;
59169;SDS011;52474;52.236;5.114;2023-11-22T13:56:54;37.95;;;20.15;;
59169;SDS011;52474;52.236;5.114;2023-11-22T13:59:19;33.40;;;19.13;;
59169;SDS011;52474;52.236;5.114;2023-11-22T14:01:45;32.47;;;19.15;;
59169;SDS011;52474;52.236;5.114;2023-11-22T14:04:11;38.22;;;20.90;;
59169;SDS011;52474;52.236;5.114;2023-11-22T14:06:37;36.67;;;19.85;;
59169;SDS011;52474;52.236;5.114;2023-11-22T14:09:02;36.92;;;19.90;;
59169;SDS011;52474;52.236;5.114;2023-11-22T14:11:28;39.55;;;20.92;;
59169;SDS011;52474;52.236;5.114;2023-11-22T14:13:55;41.42;;;21.10;;
59169;SDS011;52474;52.236;5.114;2023-11-22T14:16:23;41.50;;;22.58;;
59169;SDS011;52474;52.236;5.114;2023-11-22T14:18:49;39.97;;;20.98;;
59169;SDS011;52474;52.236;5.114;2023-11-22T14:21:15;36.75;;;19.65;;
59169;SDS011;52474;52.236;5.114;2023-11-22T14:23:42;40.85;;;20.63;;
59169;SDS011;52474;52.236;5.114;2023-11-22T14:26:08;35.92;;;19.17;;
59169;SDS011;52474;52.236;5.114;2023-11-22T14:28:34;37.35;;;20.65;;
59169;SDS011;52474;52.236;5.114;2023-11-22T14:30:59;37.97;;;19.42;;
59169;SDS011;52474;52.236;5.114;2023-11-22T14:33:25;34.33;;;18.05;;
59169;SDS011;52474;52.236;5.114;2023-11-22T14:35:51;39.53;;;21.23;;